sensor_id;sensor_type;location;lat;lon;timestamp;pressure;altitude;pressure_sealevel;temperature;humidity
62632;BME280;48703;51.248;-0.546;2022-07-09T00:01:12;102423;;;18.93;89.10
62632;BME280;48703;51.248;-0.546;2022-07-09T00:04:14;102426;;;18.88;89.74
62632;BME280;48703;51.248;-0.546;2022-07-09T00:07:16;102427;;;18.84;90.57
62632;BME280;48703;51.248;-0.546;2022-07-09T00:10:18;102425;;;18.80;90.09
62632;BME280;48703;51.248;-0.546;2022-07-09T00:13:20;102424;;;18.76;90.55
62632;BME280;48703;51.248;-0.546;2022-07-09T00:16:22;102424;;;18.71;90.78
62632;BME280;48703;51.248;-0.546;2022-07-09T00:19:23;102429;;;18.68;91.32
62632;BME280;48703;51.248;-0.546;2022-07-09T00:22:25;102427;;;18.61;91.69
62632;BME280;48703;51.248;-0.546;2022-07-09T00:25:27;102430;;;18.58;91.43
62632;BME280;48703;51.248;-0.546;2022-07-09T00:28:29;102425;;;18.53;91.46
62632;BME280;48703;51.248;-0.546;2022-07-09T00:31:31;102426;;;18.48;92.92
62632;BME280;48703;51.248;-0.546;2022-07-09T00:34:33;102426;;;18.41;92.54
62632;BME280;48703;51.248;-0.546;2022-07-09T00:37:35;102430;;;18.36;93.29
62632;BME280;48703;51.248;-0.546;2022-07-09T00:40:37;102428;;;18.31;93.32
62632;BME280;48703;51.248;-0.546;2022-07-09T00:43:45;102429;;;18.29;93.61
62632;BME280;48703;51.248;-0.546;2022-07-09T00:46:41;102430;;;18.23;93.61
62632;BME280;48703;51.248;-0.546;2022-07-09T00:49:42;102430;;;18.19;93.69
62632;BME280;48703;51.248;-0.546;2022-07-09T00:52:44;102431;;;18.15;94.15
62632;BME280;48703;51.248;-0.546;2022-07-09T00:55:47;102433;;;18.09;94.13
62632;BME280;48703;51.248;-0.546;2022-07-09T00:58:48;102435;;;18.05;94.79
62632;BME280;48703;51.248;-0.546;2022-07-09T01:01:50;102438;;;18.00;95.41
62632;BME280;48703;51.248;-0.546;2022-07-09T01:04:52;102443;;;17.89;95.25
62632;BME280;48703;51.248;-0.546;2022-07-09T01:07:54;102439;;;17.88;95.21
62632;BME280;48703;51.248;-0.546;2022-07-09T01:10:56;102439;;;17.82;96.00
62632;BME280;48703;51.248;-0.546;2022-07-09T01:13:58;102439;;;17.77;96.04
62632;BME280;48703;51.248;-0.546;2022-07-09T01:17:00;102441;;;17.76;95.56
62632;BME280;48703;51.248;-0.546;2022-07-09T01:20:02;102439;;;17.72;96.10
62632;BME280;48703;51.248;-0.546;2022-07-09T01:23:03;102440;;;17.67;97.07
62632;BME280;48703;51.248;-0.546;2022-07-09T01:26:05;102436;;;17.64;96.69
62632;BME280;48703;51.248;-0.546;2022-07-09T01:29:07;102432;;;17.61;96.64
62632;BME280;48703;51.248;-0.546;2022-07-09T01:32:09;102434;;;17.58;96.89
62632;BME280;48703;51.248;-0.546;2022-07-09T01:35:11;102434;;;17.54;97.07
62632;BME280;48703;51.248;-0.546;2022-07-09T01:38:13;102432;;;17.48;97.08
62632;BME280;48703;51.248;-0.546;2022-07-09T01:41:15;102431;;;17.43;97.49
62632;BME280;48703;51.248;-0.546;2022-07-09T01:44:17;102429;;;17.40;97.76
62632;BME280;48703;51.248;-0.546;2022-07-09T01:47:19;102429;;;17.34;97.99
62632;BME280;48703;51.248;-0.546;2022-07-09T01:50:21;102427;;;17.28;97.70
62632;BME280;48703;51.248;-0.546;2022-07-09T01:53:22;102429;;;17.23;98.78
62632;BME280;48703;51.248;-0.546;2022-07-09T01:56:24;102430;;;17.17;98.90
62632;BME280;48703;51.248;-0.546;2022-07-09T01:59:26;102431;;;17.06;99.41
62632;BME280;48703;51.248;-0.546;2022-07-09T02:02:28;102437;;;16.97;99.85
62632;BME280;48703;51.248;-0.546;2022-07-09T02:05:30;102438;;;16.98;99.75
62632;BME280;48703;51.248;-0.546;2022-07-09T02:08:32;102434;;;16.98;99.22
62632;BME280;48703;51.248;-0.546;2022-07-09T02:11:34;102435;;;16.97;98.97
62632;BME280;48703;51.248;-0.546;2022-07-09T02:14:36;102437;;;16.96;99.50
62632;BME280;48703;51.248;-0.546;2022-07-09T02:17:38;102436;;;16.89;99.30
62632;BME280;48703;51.248;-0.546;2022-07-09T02:20:40;102440;;;16.79;100.00
62632;BME280;48703;51.248;-0.546;2022-07-09T02:23:41;102440;;;16.74;99.91
62632;BME280;48703;51.248;-0.546;2022-07-09T02:26:43;102437;;;16.71;99.99
62632;BME280;48703;51.248;-0.546;2022-07-09T02:29:45;102434;;;16.68;99.93
62632;BME280;48703;51.248;-0.546;2022-07-09T02:32:47;102434;;;16.66;100.00
62632;BME280;48703;51.248;-0.546;2022-07-09T02:35:49;102436;;;16.57;100.00
62632;BME280;48703;51.248;-0.546;2022-07-09T02:38:51;102437;;;16.52;100.00
62632;BME280;48703;51.248;-0.546;2022-07-09T02:41:53;102435;;;16.44;100.00
62632;BME280;48703;51.248;-0.546;2022-07-09T02:44:55;102437;;;16.41;100.00
62632;BME280;48703;51.248;-0.546;2022-07-09T02:47:57;102441;;;16.38;100.00
62632;BME280;48703;51.248;-0.546;2022-07-09T02:50:59;102440;;;16.32;100.00
62632;BME280;48703;51.248;-0.546;2022-07-09T02:54:00;102434;;;16.31;100.00
62632;BME280;48703;51.248;-0.546;2022-07-09T02:57:03;102431;;;16.30;100.00
62632;BME280;48703;51.248;-0.546;2022-07-09T03:00:05;102428;;;16.21;100.00
62632;BME280;48703;51.248;-0.546;2022-07-09T03:03:06;102426;;;16.19;100.00
62632;BME280;48703;51.248;-0.546;2022-07-09T03:06:08;102428;;;16.16;100.00
62632;BME280;48703;51.248;-0.546;2022-07-09T03:09:10;102428;;;16.10;100.00
62632;BME280;48703;51.248;-0.546;2022-07-09T03:12:12;102429;;;16.06;100.00
62632;BME280;48703;51.248;-0.546;2022-07-09T03:15:14;102433;;;15.98;100.00
62632;BME280;48703;51.248;-0.546;2022-07-09T03:18:16;102433;;;15.90;100.00
62632;BME280;48703;51.248;-0.546;2022-07-09T03:21:18;102433;;;15.88;100.00
62632;BME280;48703;51.248;-0.546;2022-07-09T03:24:20;102432;;;15.85;100.00
62632;BME280;48703;51.248;-0.546;2022-07-09T03:27:21;102432;;;15.82;100.00
62632;BME280;48703;51.248;-0.546;2022-07-09T03:30:23;102430;;;15.81;100.00
62632;BME280;48703;51.248;-0.546;2022-07-09T03:33:25;102430;;;15.76;100.00
62632;BME280;48703;51.248;-0.546;2022-07-09T03:36:27;102429;;;15.70;100.00
62632;BME280;48703;51.248;-0.546;2022-07-09T03:39:29;102429;;;15.68;100.00
62632;BME280;48703;51.248;-0.546;2022-07-09T03:42:31;102431;;;15.63;100.00
62632;BME280;48703;51.248;-0.546;2022-07-09T03:45:33;102436;;;15.59;100.00
62632;BME280;48703;51.248;-0.546;2022-07-09T03:48:35;102437;;;15.56;100.00
62632;BME280;48703;51.248;-0.546;2022-07-09T03:51:37;102434;;;15.45;100.00
62632;BME280;48703;51.248;-0.546;2022-07-09T03:54:39;102437;;;15.43;100.00
62632;BME280;48703;51.248;-0.546;2022-07-09T03:57:40;102435;;;15.40;100.00
62632;BME280;48703;51.248;-0.546;2022-07-09T04:00:42;102433;;;15.39;100.00
62632;BME280;48703;51.248;-0.546;2022-07-09T04:03:44;102438;;;15.34;100.00
62632;BME280;48703;51.248;-0.546;2022-07-09T04:06:46;102437;;;15.31;100.00
62632;BME280;48703;51.248;-0.546;2022-07-09T04:09:48;102438;;;15.30;100.00
62632;BME280;48703;51.248;-0.546;2022-07-09T04:12:50;102435;;;15.26;100.00
62632;BME280;48703;51.248;-0.546;2022-07-09T04:15:52;102437;;;15.25;100.00
62632;BME280;48703;51.248;-0.546;2022-07-09T04:18:54;102444;;;15.24;100.00
62632;BME280;48703;51.248;-0.546;2022-07-09T04:21:56;102451;;;15.14;100.00
62632;BME280;48703;51.248;-0.546;2022-07-09T04:24:58;102445;;;15.09;100.00
62632;BME280;48703;51.248;-0.546;2022-07-09T04:28:00;102445;;;15.09;100.00
62632;BME280;48703;51.248;-0.546;2022-07-09T04:31:01;102444;;;15.09;100.00
62632;BME280;48703;51.248;-0.546;2022-07-09T04:34:03;102441;;;15.05;100.00
62632;BME280;48703;51.248;-0.546;2022-07-09T04:37:05;102440;;;15.08;100.00
62632;BME280;48703;51.248;-0.546;2022-07-09T04:40:08;102440;;;15.08;100.00
62632;BME280;48703;51.248;-0.546;2022-07-09T04:43:09;102439;;;15.07;100.00
62632;BME280;48703;51.248;-0.546;2022-07-09T04:46:11;102439;;;15.05;100.00
62632;BME280;48703;51.248;-0.546;2022-07-09T04:49:13;102439;;;15.06;100.00
62632;BME280;48703;51.248;-0.546;2022-07-09T04:52:15;102441;;;15.08;100.00
62632;BME280;48703;51.248;-0.546;2022-07-09T04:55:17;102438;;;15.08;100.00
62632;BME280;48703;51.248;-0.546;2022-07-09T04:58:19;102437;;;15.09;100.00
62632;BME280;48703;51.248;-0.546;2022-07-09T05:01:21;102433;;;15.13;100.00
62632;BME280;48703;51.248;-0.546;2022-07-09T05:04:22;102425;;;15.17;100.00
62632;BME280;48703;51.248;-0.546;2022-07-09T05:07:24;102424;;;15.23;100.00
62632;BME280;48703;51.248;-0.546;2022-07-09T05:10:26;102430;;;15.30;100.00
62632;BME280;48703;51.248;-0.546;2022-07-09T05:13:28;102429;;;15.34;100.00
62632;BME280;48703;51.248;-0.546;2022-07-09T05:16:30;102430;;;15.37;100.00
62632;BME280;48703;51.248;-0.546;2022-07-09T05:19:32;102436;;;15.41;100.00
62632;BME280;48703;51.248;-0.546;2022-07-09T05:22:35;102436;;;15.47;100.00
62632;BME280;48703;51.248;-0.546;2022-07-09T05:25:36;102439;;;15.52;100.00
62632;BME280;48703;51.248;-0.546;2022-07-09T05:28:38;102441;;;15.56;100.00
62632;BME280;48703;51.248;-0.546;2022-07-09T05:31:40;102446;;;15.61;100.00
62632;BME280;48703;51.248;-0.546;2022-07-09T05:34:41;102450;;;15.66;100.00
62632;BME280;48703;51.248;-0.546;2022-07-09T05:37:43;102452;;;15.69;100.00
62632;BME280;48703;51.248;-0.546;2022-07-09T05:40:45;102453;;;15.72;100.00
62632;BME280;48703;51.248;-0.546;2022-07-09T05:43:47;102452;;;15.76;100.00
62632;BME280;48703;51.248;-0.546;2022-07-09T05:46:49;102451;;;15.82;100.00
62632;BME280;48703;51.248;-0.546;2022-07-09T05:49:51;102451;;;15.87;100.00
62632;BME280;48703;51.248;-0.546;2022-07-09T05:52:53;102456;;;15.92;100.00
62632;BME280;48703;51.248;-0.546;2022-07-09T05:55:55;102456;;;15.97;100.00
62632;BME280;48703;51.248;-0.546;2022-07-09T05:58:57;102454;;;16.03;100.00
62632;BME280;48703;51.248;-0.546;2022-07-09T06:01:58;102460;;;16.10;100.00
62632;BME280;48703;51.248;-0.546;2022-07-09T06:05:00;102464;;;16.17;100.00
62632;BME280;48703;51.248;-0.546;2022-07-09T06:08:02;102465;;;16.24;100.00
62632;BME280;48703;51.248;-0.546;2022-07-09T06:11:04;102464;;;16.31;100.00
62632;BME280;48703;51.248;-0.546;2022-07-09T06:14:06;102464;;;16.40;100.00
62632;BME280;48703;51.248;-0.546;2022-07-09T06:17:08;102464;;;16.48;100.00
62632;BME280;48703;51.248;-0.546;2022-07-09T06:20:10;102468;;;16.51;100.00
62632;BME280;48703;51.248;-0.546;2022-07-09T06:23:12;102466;;;16.51;100.00
62632;BME280;48703;51.248;-0.546;2022-07-09T06:26:14;102467;;;16.53;100.00
62632;BME280;48703;51.248;-0.546;2022-07-09T06:29:16;102466;;;16.56;100.00
62632;BME280;48703;51.248;-0.546;2022-07-09T06:32:17;102460;;;16.58;100.00
62632;BME280;48703;51.248;-0.546;2022-07-09T06:35:19;102460;;;16.61;100.00
62632;BME280;48703;51.248;-0.546;2022-07-09T06:38:21;102459;;;16.67;100.00
62632;BME280;48703;51.248;-0.546;2022-07-09T06:41:23;102456;;;16.74;100.00
62632;BME280;48703;51.248;-0.546;2022-07-09T06:44:25;102455;;;16.81;100.00
62632;BME280;48703;51.248;-0.546;2022-07-09T06:47:27;102449;;;16.90;100.00
62632;BME280;48703;51.248;-0.546;2022-07-09T06:50:29;102448;;;16.95;100.00
62632;BME280;48703;51.248;-0.546;2022-07-09T06:53:31;102450;;;17.00;100.00
62632;BME280;48703;51.248;-0.546;2022-07-09T06:56:33;102456;;;17.06;100.00
62632;BME280;48703;51.248;-0.546;2022-07-09T06:59:35;102455;;;17.13;100.00
62632;BME280;48703;51.248;-0.546;2022-07-09T07:02:37;102457;;;17.20;100.00
62632;BME280;48703;51.248;-0.546;2022-07-09T07:05:38;102463;;;17.29;100.00
62632;BME280;48703;51.248;-0.546;2022-07-09T07:08:40;102466;;;17.41;100.00
62632;BME280;48703;51.248;-0.546;2022-07-09T07:11:42;102463;;;17.53;100.00
62632;BME280;48703;51.248;-0.546;2022-07-09T07:14:44;102459;;;17.62;100.00
62632;BME280;48703;51.248;-0.546;2022-07-09T07:17:46;102464;;;17.73;100.00
62632;BME280;48703;51.248;-0.546;2022-07-09T07:20:48;102467;;;17.81;100.00
62632;BME280;48703;51.248;-0.546;2022-07-09T07:23:50;102465;;;17.84;100.00
62632;BME280;48703;51.248;-0.546;2022-07-09T07:26:52;102472;;;17.87;100.00
62632;BME280;48703;51.248;-0.546;2022-07-09T07:29:54;102478;;;17.92;100.00
62632;BME280;48703;51.248;-0.546;2022-07-09T07:32:56;102485;;;17.96;100.00
62632;BME280;48703;51.248;-0.546;2022-07-09T07:35:57;102483;;;17.99;100.00
62632;BME280;48703;51.248;-0.546;2022-07-09T07:38:59;102480;;;18.04;100.00
62632;BME280;48703;51.248;-0.546;2022-07-09T07:42:01;102480;;;18.12;100.00
62632;BME280;48703;51.248;-0.546;2022-07-09T07:45:04;102479;;;18.17;100.00
62632;BME280;48703;51.248;-0.546;2022-07-09T07:48:05;102480;;;18.22;100.00
62632;BME280;48703;51.248;-0.546;2022-07-09T07:51:07;102477;;;18.27;100.00
62632;BME280;48703;51.248;-0.546;2022-07-09T07:54:09;102481;;;18.33;100.00
62632;BME280;48703;51.248;-0.546;2022-07-09T07:57:11;102482;;;18.38;100.00
62632;BME280;48703;51.248;-0.546;2022-07-09T08:00:13;102484;;;18.44;100.00
62632;BME280;48703;51.248;-0.546;2022-07-09T08:03:15;102480;;;18.51;100.00
62632;BME280;48703;51.248;-0.546;2022-07-09T08:06:17;102480;;;18.58;100.00
62632;BME280;48703;51.248;-0.546;2022-07-09T08:09:18;102477;;;18.64;100.00
62632;BME280;48703;51.248;-0.546;2022-07-09T08:12:20;102474;;;18.73;100.00
62632;BME280;48703;51.248;-0.546;2022-07-09T08:15:22;102477;;;18.82;100.00
62632;BME280;48703;51.248;-0.546;2022-07-09T08:18:24;102479;;;18.91;100.00
62632;BME280;48703;51.248;-0.546;2022-07-09T08:21:26;102470;;;18.95;99.01
62632;BME280;48703;51.248;-0.546;2022-07-09T08:24:28;102472;;;19.00;99.01
62632;BME280;48703;51.248;-0.546;2022-07-09T08:27:30;102474;;;19.03;96.98
62632;BME280;48703;51.248;-0.546;2022-07-09T08:30:32;102469;;;19.08;97.10
62632;BME280;48703;51.248;-0.546;2022-07-09T08:33:34;102469;;;19.07;95.79
62632;BME280;48703;51.248;-0.546;2022-07-09T08:36:36;102469;;;19.07;95.11
62632;BME280;48703;51.248;-0.546;2022-07-09T08:39:37;102469;;;19.07;95.24
62632;BME280;48703;51.248;-0.546;2022-07-09T08:42:39;102469;;;19.06;95.59
62632;BME280;48703;51.248;-0.546;2022-07-09T08:45:41;102475;;;19.06;96.32
62632;BME280;48703;51.248;-0.546;2022-07-09T08:48:44;102474;;;19.07;96.12
62632;BME280;48703;51.248;-0.546;2022-07-09T08:51:45;102472;;;19.09;96.13
62632;BME280;48703;51.248;-0.546;2022-07-09T08:54:47;102471;;;19.14;96.33
62632;BME280;48703;51.248;-0.546;2022-07-09T08:57:49;102469;;;19.23;97.19
62632;BME280;48703;51.248;-0.546;2022-07-09T09:00:51;102464;;;19.29;95.99
62632;BME280;48703;51.248;-0.546;2022-07-09T09:03:53;102466;;;19.37;95.77
62632;BME280;48703;51.248;-0.546;2022-07-09T09:06:55;102464;;;19.43;94.57
62632;BME280;48703;51.248;-0.546;2022-07-09T09:09:56;102464;;;19.48;93.69
62632;BME280;48703;51.248;-0.546;2022-07-09T09:12:59;102467;;;19.48;93.39
62632;BME280;48703;51.248;-0.546;2022-07-09T09:16:02;102467;;;19.49;92.51
62632;BME280;48703;51.248;-0.546;2022-07-09T09:19:02;102469;;;19.54;92.46
62632;BME280;48703;51.248;-0.546;2022-07-09T09:22:04;102461;;;19.56;91.84
62632;BME280;48703;51.248;-0.546;2022-07-09T09:25:06;102460;;;19.59;90.59
62632;BME280;48703;51.248;-0.546;2022-07-09T09:28:08;102462;;;19.67;91.72
62632;BME280;48703;51.248;-0.546;2022-07-09T09:31:17;102455;;;19.72;90.76
62632;BME280;48703;51.248;-0.546;2022-07-09T09:34:12;102455;;;19.80;90.24
62632;BME280;48703;51.248;-0.546;2022-07-09T09:37:24;102460;;;19.95;91.46
62632;BME280;48703;51.248;-0.546;2022-07-09T09:40:16;102464;;;20.06;89.44
62632;BME280;48703;51.248;-0.546;2022-07-09T09:43:17;102465;;;20.07;88.37
62632;BME280;48703;51.248;-0.546;2022-07-09T09:46:19;102462;;;20.09;88.97
62632;BME280;48703;51.248;-0.546;2022-07-09T09:49:21;102458;;;20.16;86.10
62632;BME280;48703;51.248;-0.546;2022-07-09T09:52:23;102458;;;20.22;85.24
62632;BME280;48703;51.248;-0.546;2022-07-09T09:55:25;102456;;;20.28;83.96
62632;BME280;48703;51.248;-0.546;2022-07-09T09:58:27;102455;;;20.36;84.15
62632;BME280;48703;51.248;-0.546;2022-07-09T10:01:29;102454;;;20.40;82.87
62632;BME280;48703;51.248;-0.546;2022-07-09T10:04:31;102451;;;20.45;82.69
62632;BME280;48703;51.248;-0.546;2022-07-09T10:07:33;102454;;;20.51;82.23
62632;BME280;48703;51.248;-0.546;2022-07-09T10:10:34;102460;;;20.60;81.84
62632;BME280;48703;51.248;-0.546;2022-07-09T10:13:37;102462;;;20.66;81.12
62632;BME280;48703;51.248;-0.546;2022-07-09T10:16:38;102464;;;20.74;81.16
62632;BME280;48703;51.248;-0.546;2022-07-09T10:19:50;102462;;;20.79;80.40
62632;BME280;48703;51.248;-0.546;2022-07-09T10:22:43;102458;;;20.84;79.80
62632;BME280;48703;51.248;-0.546;2022-07-09T10:25:44;102456;;;20.91;80.22
62632;BME280;48703;51.248;-0.546;2022-07-09T10:28:46;102457;;;20.97;78.12
62632;BME280;48703;51.248;-0.546;2022-07-09T10:31:48;102459;;;20.98;78.82
62632;BME280;48703;51.248;-0.546;2022-07-09T10:34:53;102456;;;21.09;79.35
62632;BME280;48703;51.248;-0.546;2022-07-09T10:37:52;102450;;;21.29;77.15
62632;BME280;48703;51.248;-0.546;2022-07-09T10:40:56;102450;;;21.41;77.15
62632;BME280;48703;51.248;-0.546;2022-07-09T10:43:55;102451;;;21.38;75.39
62632;BME280;48703;51.248;-0.546;2022-07-09T10:46:57;102440;;;21.25;76.70
62632;BME280;48703;51.248;-0.546;2022-07-09T10:50:02;102447;;;21.29;76.96
62632;BME280;48703;51.248;-0.546;2022-07-09T10:53:01;102446;;;21.33;75.41
62632;BME280;48703;51.248;-0.546;2022-07-09T10:56:04;102449;;;21.41;72.31
62632;BME280;48703;51.248;-0.546;2022-07-09T10:59:05;102441;;;21.47;72.08
62632;BME280;48703;51.248;-0.546;2022-07-09T11:02:16;102442;;;21.54;71.77
62632;BME280;48703;51.248;-0.546;2022-07-09T11:05:09;102440;;;21.55;70.06
62632;BME280;48703;51.248;-0.546;2022-07-09T11:08:11;102435;;;21.66;71.02
62632;BME280;48703;51.248;-0.546;2022-07-09T11:11:14;102430;;;21.72;68.39
62632;BME280;48703;51.248;-0.546;2022-07-09T11:14:15;102426;;;21.80;69.94
62632;BME280;48703;51.248;-0.546;2022-07-09T11:17:17;102433;;;21.84;70.94
62632;BME280;48703;51.248;-0.546;2022-07-09T11:20:18;102428;;;21.86;69.68
62632;BME280;48703;51.248;-0.546;2022-07-09T11:23:20;102427;;;21.88;69.89
62632;BME280;48703;51.248;-0.546;2022-07-09T11:26:22;102423;;;21.89;67.27
62632;BME280;48703;51.248;-0.546;2022-07-09T11:29:24;102423;;;21.90;66.49
62632;BME280;48703;51.248;-0.546;2022-07-09T11:32:26;102425;;;21.93;66.58
62632;BME280;48703;51.248;-0.546;2022-07-09T11:35:28;102424;;;21.95;67.45
62632;BME280;48703;51.248;-0.546;2022-07-09T11:38:30;102421;;;21.99;67.55
62632;BME280;48703;51.248;-0.546;2022-07-09T11:41:39;102425;;;21.99;67.63
62632;BME280;48703;51.248;-0.546;2022-07-09T11:44:33;102428;;;22.05;65.73
62632;BME280;48703;51.248;-0.546;2022-07-09T11:47:36;102423;;;22.10;66.32
62632;BME280;48703;51.248;-0.546;2022-07-09T11:50:41;102415;;;22.15;66.36
62632;BME280;48703;51.248;-0.546;2022-07-09T11:53:39;102417;;;22.24;64.56
62632;BME280;48703;51.248;-0.546;2022-07-09T11:56:41;102412;;;22.23;62.54
62632;BME280;48703;51.248;-0.546;2022-07-09T11:59:43;102412;;;22.21;62.43
62632;BME280;48703;51.248;-0.546;2022-07-09T12:02:45;102415;;;22.20;61.50
62632;BME280;48703;51.248;-0.546;2022-07-09T12:05:49;102412;;;22.25;60.64
62632;BME280;48703;51.248;-0.546;2022-07-09T12:08:57;102404;;;22.28;60.24
62632;BME280;48703;51.248;-0.546;2022-07-09T12:11:51;102400;;;22.25;60.81
62632;BME280;48703;51.248;-0.546;2022-07-09T12:14:53;102398;;;22.28;62.75
62632;BME280;48703;51.248;-0.546;2022-07-09T12:17:55;102396;;;22.29;60.32
62632;BME280;48703;51.248;-0.546;2022-07-09T12:20:56;102399;;;22.36;60.31
62632;BME280;48703;51.248;-0.546;2022-07-09T12:23:58;102394;;;22.41;60.60
62632;BME280;48703;51.248;-0.546;2022-07-09T12:27:00;102389;;;22.46;60.22
62632;BME280;48703;51.248;-0.546;2022-07-09T12:30:02;102384;;;22.51;60.39
62632;BME280;48703;51.248;-0.546;2022-07-09T12:33:04;102379;;;22.57;60.77
62632;BME280;48703;51.248;-0.546;2022-07-09T12:36:06;102380;;;22.61;60.70
62632;BME280;48703;51.248;-0.546;2022-07-09T12:39:08;102373;;;22.67;60.08
62632;BME280;48703;51.248;-0.546;2022-07-09T12:42:10;102376;;;22.74;58.76
62632;BME280;48703;51.248;-0.546;2022-07-09T12:45:11;102370;;;22.76;58.50
62632;BME280;48703;51.248;-0.546;2022-07-09T12:48:13;102370;;;22.74;59.08
62632;BME280;48703;51.248;-0.546;2022-07-09T12:51:15;102368;;;22.76;58.41
62632;BME280;48703;51.248;-0.546;2022-07-09T12:54:17;102357;;;22.82;58.77
62632;BME280;48703;51.248;-0.546;2022-07-09T12:57:19;102360;;;22.86;56.44
62632;BME280;48703;51.248;-0.546;2022-07-09T13:00:21;102354;;;22.89;56.47
62632;BME280;48703;51.248;-0.546;2022-07-09T13:03:23;102357;;;22.98;56.32
62632;BME280;48703;51.248;-0.546;2022-07-09T13:06:25;102355;;;22.98;54.58
62632;BME280;48703;51.248;-0.546;2022-07-09T13:09:27;102349;;;23.07;55.96
62632;BME280;48703;51.248;-0.546;2022-07-09T13:12:29;102350;;;23.16;56.14
62632;BME280;48703;51.248;-0.546;2022-07-09T13:15:30;102344;;;23.19;56.17
62632;BME280;48703;51.248;-0.546;2022-07-09T13:18:32;102340;;;23.23;54.85
62632;BME280;48703;51.248;-0.546;2022-07-09T13:21:34;102350;;;23.30;53.97
62632;BME280;48703;51.248;-0.546;2022-07-09T13:24:36;102349;;;23.31;52.56
62632;BME280;48703;51.248;-0.546;2022-07-09T13:27:38;102337;;;23.32;53.30
62632;BME280;48703;51.248;-0.546;2022-07-09T13:30:40;102335;;;23.39;52.29
62632;BME280;48703;51.248;-0.546;2022-07-09T13:33:42;102340;;;23.42;50.20
62632;BME280;48703;51.248;-0.546;2022-07-09T13:36:44;102330;;;23.45;50.05
62632;BME280;48703;51.248;-0.546;2022-07-09T13:39:46;102325;;;23.46;51.17
62632;BME280;48703;51.248;-0.546;2022-07-09T13:42:48;102336;;;23.53;50.91
62632;BME280;48703;51.248;-0.546;2022-07-09T13:45:50;102336;;;23.60;52.16
62632;BME280;48703;51.248;-0.546;2022-07-09T13:48:51;102329;;;23.69;50.20
62632;BME280;48703;51.248;-0.546;2022-07-09T13:51:53;102327;;;23.80;50.47
62632;BME280;48703;51.248;-0.546;2022-07-09T13:54:55;102326;;;23.88;51.32
62632;BME280;48703;51.248;-0.546;2022-07-09T13:57:57;102331;;;23.91;51.75
62632;BME280;48703;51.248;-0.546;2022-07-09T14:00:59;102327;;;23.96;50.41
62632;BME280;48703;51.248;-0.546;2022-07-09T14:04:01;102320;;;23.98;50.49
62632;BME280;48703;51.248;-0.546;2022-07-09T14:07:03;102318;;;24.02;50.55
62632;BME280;48703;51.248;-0.546;2022-07-09T14:10:05;102318;;;24.08;50.38
62632;BME280;48703;51.248;-0.546;2022-07-09T14:13:07;102319;;;24.20;50.91
62632;BME280;48703;51.248;-0.546;2022-07-09T14:16:09;102307;;;24.24;49.20
62632;BME280;48703;51.248;-0.546;2022-07-09T14:19:10;102302;;;24.27;49.71
62632;BME280;48703;51.248;-0.546;2022-07-09T14:22:12;102301;;;24.32;49.62
62632;BME280;48703;51.248;-0.546;2022-07-09T14:25:14;102304;;;24.44;47.90
62632;BME280;48703;51.248;-0.546;2022-07-09T14:28:16;102298;;;24.49;47.71
62632;BME280;48703;51.248;-0.546;2022-07-09T14:31:18;102299;;;24.58;48.41
62632;BME280;48703;51.248;-0.546;2022-07-09T14:34:20;102300;;;24.71;49.35
62632;BME280;48703;51.248;-0.546;2022-07-09T14:37:22;102298;;;24.76;46.91
62632;BME280;48703;51.248;-0.546;2022-07-09T14:40:24;102294;;;24.81;47.25
62632;BME280;48703;51.248;-0.546;2022-07-09T14:43:26;102296;;;24.93;47.64
62632;BME280;48703;51.248;-0.546;2022-07-09T14:46:28;102299;;;25.09;45.30
62632;BME280;48703;51.248;-0.546;2022-07-09T14:49:29;102293;;;25.21;46.03
62632;BME280;48703;51.248;-0.546;2022-07-09T14:52:31;102287;;;25.29;46.27
62632;BME280;48703;51.248;-0.546;2022-07-09T14:55:33;102287;;;25.38;45.75
62632;BME280;48703;51.248;-0.546;2022-07-09T14:58:35;102287;;;25.48;45.29
62632;BME280;48703;51.248;-0.546;2022-07-09T15:01:37;102284;;;25.53;45.90
62632;BME280;48703;51.248;-0.546;2022-07-09T15:04:39;102281;;;25.66;44.98
62632;BME280;48703;51.248;-0.546;2022-07-09T15:07:41;102281;;;25.74;44.41
62632;BME280;48703;51.248;-0.546;2022-07-09T15:10:43;102279;;;25.82;45.77
62632;BME280;48703;51.248;-0.546;2022-07-09T15:13:45;102277;;;25.91;44.10
62632;BME280;48703;51.248;-0.546;2022-07-09T15:16:47;102270;;;26.00;44.31
62632;BME280;48703;51.248;-0.546;2022-07-09T15:19:48;102262;;;26.08;44.23
62632;BME280;48703;51.248;-0.546;2022-07-09T15:22:50;102259;;;26.10;44.27
62632;BME280;48703;51.248;-0.546;2022-07-09T15:25:52;102259;;;26.24;44.98
62632;BME280;48703;51.248;-0.546;2022-07-09T15:28:54;102261;;;26.34;43.65
62632;BME280;48703;51.248;-0.546;2022-07-09T15:31:56;102262;;;26.43;43.30
62632;BME280;48703;51.248;-0.546;2022-07-09T15:34:58;102255;;;26.47;43.02
62632;BME280;48703;51.248;-0.546;2022-07-09T15:38:00;102251;;;26.54;43.39
62632;BME280;48703;51.248;-0.546;2022-07-09T15:41:02;102251;;;26.68;43.30
62632;BME280;48703;51.248;-0.546;2022-07-09T15:44:04;102247;;;26.79;42.52
62632;BME280;48703;51.248;-0.546;2022-07-09T15:47:05;102248;;;26.88;40.85
62632;BME280;48703;51.248;-0.546;2022-07-09T15:50:08;102240;;;26.91;40.33
62632;BME280;48703;51.248;-0.546;2022-07-09T15:53:09;102230;;;27.03;41.56
62632;BME280;48703;51.248;-0.546;2022-07-09T15:56:11;102225;;;27.07;39.97
62632;BME280;48703;51.248;-0.546;2022-07-09T15:59:13;102225;;;27.13;40.04
62632;BME280;48703;51.248;-0.546;2022-07-09T16:02:15;102219;;;27.17;38.39
62632;BME280;48703;51.248;-0.546;2022-07-09T16:05:17;102219;;;27.10;38.74
62632;BME280;48703;51.248;-0.546;2022-07-09T16:08:19;102218;;;27.09;40.28
62632;BME280;48703;51.248;-0.546;2022-07-09T16:11:21;102219;;;27.22;38.72